createdAt,value
2022-10-13T00:01:52.785Z,101623.50
2022-10-13T00:03:55.532Z,101633.03
2022-10-13T00:05:58.398Z,101465.22
2022-10-13T00:08:01.661Z,101617.59
2022-10-13T00:10:06.900Z,101617.34
2022-10-13T00:12:09.431Z,101620.56
2022-10-13T00:14:12.014Z,101625.19
2022-10-13T00:16:18.037Z,101634.50
2022-10-13T00:18:20.605Z,101598.97
2022-10-13T00:20:26.464Z,101546.78
2022-10-13T00:22:29.096Z,101616.75
2022-10-13T00:24:31.674Z,101626.06
2022-10-13T00:26:34.235Z,101505.38
2022-10-13T00:28:37.895Z,101619.66
2022-10-13T00:30:41.294Z,101621.81
2022-10-13T00:32:43.858Z,101618.09
2022-10-13T00:34:46.431Z,101614.66
2022-10-13T00:36:49.743Z,101589.94
2022-10-13T00:38:53.295Z,101628.28
2022-10-13T00:40:57.331Z,101613.34
2022-10-13T00:42:59.855Z,101592.69
2022-10-13T00:45:15.724Z,101624.84
2022-10-13T00:47:19.895Z,101572.91
2022-10-13T00:49:22.550Z,101600.28
2022-10-13T00:51:32.282Z,101607.06
2022-10-13T00:53:38.949Z,101624.06
2022-10-13T00:55:44.041Z,101615.16
2022-10-13T00:57:48.794Z,101571.13
2022-10-13T00:59:52.092Z,101588.91
2022-10-13T01:01:56.684Z,101578.75
2022-10-13T01:03:59.222Z,101593.97
2022-10-13T01:06:05.248Z,101589.34
2022-10-13T01:08:09.373Z,101590.59
2022-10-13T01:10:12.163Z,101609.63
2022-10-13T01:12:43.757Z,101615.56
2022-10-13T01:15:31.307Z,101598.28
2022-10-13T01:18:03.814Z,101607.84
2022-10-13T01:20:31.260Z,101576.75
2022-10-13T01:23:06.928Z,101607.22
2022-10-13T01:25:53.852Z,101604.06
2022-10-13T01:28:19.733Z,101599.72
2022-10-13T01:30:23.169Z,101587.94
2022-10-13T01:33:11.861Z,101591.69
2022-10-13T01:35:43.487Z,101588.91
2022-10-13T01:38:05.561Z,101585.91
2022-10-13T01:40:28.235Z,101588.91
2022-10-13T01:42:43.490Z,101528.94
2022-10-13T01:44:55.147Z,101482.88
2022-10-13T01:46:58.548Z,101546.47
2022-10-13T01:49:07.310Z,101557.84
2022-10-13T01:51:14.914Z,101554.00
2022-10-13T01:53:19.887Z,101571.53
2022-10-13T01:55:31.236Z,101557.22
2022-10-13T01:57:43.032Z,101558.19
2022-10-13T01:59:45.983Z,101568.00
2022-10-13T02:02:24.975Z,101582.28
2022-10-13T02:05:17.075Z,101556.44
2022-10-13T02:07:38.364Z,101568.13
2022-10-13T02:10:22.092Z,101549.06
2022-10-13T02:12:41.249Z,101494.31
2022-10-13T02:14:45.439Z,101568.41
2022-10-13T02:16:51.090Z,101502.09
2022-10-13T02:18:54.360Z,101558.22
2022-10-13T02:20:58.071Z,101562.22
2022-10-13T02:23:07.755Z,101489.13
2022-10-13T02:26:27.279Z,101558.59
2022-10-13T02:28:39.902Z,101551.13
2022-10-13T02:30:43.449Z,101540.44
2022-10-13T02:32:46.048Z,101544.03
2022-10-13T02:34:50.431Z,101514.94
2022-10-13T02:36:53.084Z,101512.91
2022-10-13T02:38:55.657Z,101536.97
2022-10-13T02:40:58.379Z,101524.59
2022-10-13T02:43:01.298Z,101539.88
2022-10-13T02:45:04.762Z,101530.63
2022-10-13T02:47:09.937Z,101502.09
2022-10-13T02:49:12.595Z,101520.91
2022-10-13T02:51:15.254Z,101488.59
2022-10-13T02:53:17.837Z,101512.66
2022-10-13T02:55:21.300Z,101509.25
2022-10-13T02:57:32.762Z,101490.97
2022-10-13T02:59:35.850Z,101515.25
2022-10-13T03:01:41.512Z,101492.16
2022-10-13T03:03:44.026Z,101507.31
2022-10-13T03:05:46.627Z,101479.22
2022-10-13T03:07:49.918Z,101527.63
2022-10-13T03:09:52.503Z,101524.03
2022-10-13T03:12:24.768Z,101490.91
2022-10-13T03:14:27.654Z,101503.97
2022-10-13T03:16:30.202Z,101385.38
2022-10-13T03:18:33.839Z,101500.09
2022-10-13T03:20:36.418Z,101424.91
2022-10-13T03:22:39.017Z,101474.44
2022-10-13T03:24:42.638Z,101510.16
2022-10-13T03:26:49.004Z,101387.91
2022-10-13T03:28:52.213Z,101463.88
2022-10-13T03:31:09.676Z,101364.69
2022-10-13T03:33:12.798Z,101514.34
2022-10-13T03:35:15.450Z,101486.94
2022-10-13T03:37:18.384Z,101312.41
2022-10-13T03:39:22.383Z,101341.34
2022-10-13T03:41:25.726Z,101449.38
2022-10-13T03:43:28.334Z,101367.41
2022-10-13T03:45:31.920Z,101459.50
2022-10-13T03:47:37.741Z,101402.22
2022-10-13T03:49:40.363Z,101499.56
2022-10-13T03:51:43.071Z,101476.97
2022-10-13T03:53:47.547Z,101449.19
2022-10-13T03:55:55.736Z,101479.34
2022-10-13T03:57:58.311Z,101478.38
2022-10-13T04:00:01.674Z,101478.38
2022-10-13T04:02:15.148Z,101489.00
2022-10-13T04:04:17.882Z,101332.53
2022-10-13T04:06:23.330Z,101466.41
2022-10-13T04:08:26.014Z,101468.41
2022-10-13T04:10:29.349Z,101485.81
2022-10-13T04:12:32.475Z,101481.34
2022-10-13T04:14:35.138Z,101498.13
2022-10-13T04:16:43.848Z,101458.16
2022-10-13T04:18:51.502Z,101495.13
2022-10-13T04:20:54.082Z,101485.56
2022-10-13T04:22:56.679Z,101397.81
2022-10-13T04:24:59.237Z,101398.25
2022-10-13T04:27:02.689Z,101477.81
2022-10-13T04:29:07.386Z,101472.38
2022-10-13T04:31:10.140Z,101474.81
2022-10-13T04:33:12.697Z,101454.44
2022-10-13T04:35:15.348Z,101369.09
2022-10-13T04:37:17.889Z,101352.97
2022-10-13T04:39:20.692Z,101465.38
2022-10-13T04:41:26.352Z,101476.06
2022-10-13T04:43:28.935Z,101452.88
2022-10-13T04:45:34.993Z,101457.78
2022-10-13T04:47:39.634Z,101476.28
2022-10-13T04:49:43.094Z,101457.16
2022-10-13T04:51:46.378Z,101471.81
2022-10-13T04:53:49.260Z,101473.44
2022-10-13T04:55:52.317Z,101431.47
2022-10-13T04:57:55.016Z,101451.47
2022-10-13T04:59:57.602Z,101456.31
2022-10-13T05:02:00.937Z,101322.78
2022-10-13T05:04:05.532Z,101419.00
2022-10-13T05:06:23.589Z,101413.34
2022-10-13T05:08:33.193Z,101464.47
2022-10-13T05:10:35.799Z,101440.06
2022-10-13T05:12:38.367Z,101445.34
2022-10-13T05:14:41.754Z,101442.56
2022-10-13T05:16:54.364Z,101438.31
2022-10-13T05:18:57.021Z,101428.47
2022-10-13T05:21:15.519Z,101462.59
2022-10-13T05:23:18.757Z,101444.69
2022-10-13T05:25:21.355Z,101455.41
2022-10-13T05:27:23.917Z,101434.84
2022-10-13T05:29:26.528Z,101419.72
2022-10-13T05:31:31.059Z,101434.25
2022-10-13T05:33:36.502Z,101436.28
2022-10-13T05:35:39.022Z,101433.88
2022-10-13T05:37:41.661Z,101411.13
2022-10-13T05:39:48.643Z,101450.06
2022-10-13T05:41:51.633Z,101449.31
2022-10-13T05:44:01.070Z,101452.97
2022-10-13T05:46:04.271Z,101443.94
2022-10-13T05:48:12.437Z,101448.59
2022-10-13T05:50:15.828Z,101450.19
2022-10-13T05:52:19.004Z,101401.81
2022-10-13T05:54:43.810Z,101463.75
2022-10-13T05:56:54.761Z,101460.94
2022-10-13T05:59:03.428Z,101430.69
2022-10-13T06:01:09.036Z,101439.97
2022-10-13T06:03:23.167Z,101445.84
2022-10-13T06:05:27.677Z,101387.78
2022-10-13T06:07:32.023Z,101366.66
2022-10-13T06:09:38.023Z,101457.53
2022-10-13T06:11:41.401Z,101446.44
2022-10-13T06:13:44.151Z,101424.44
2022-10-13T06:15:46.784Z,101364.81
2022-10-13T06:17:49.862Z,101345.06
2022-10-13T06:19:52.520Z,101411.13
2022-10-13T06:21:55.107Z,101398.06
2022-10-13T06:23:57.738Z,101415.13
2022-10-13T06:26:00.425Z,101414.31
2022-10-13T06:28:03.221Z,101410.28
2022-10-13T06:30:06.442Z,101424.56
2022-10-13T06:32:10.663Z,101392.94
2022-10-13T06:34:13.215Z,101301.53
2022-10-13T06:36:19.688Z,101442.50
2022-10-13T06:38:22.345Z,101437.25
2022-10-13T06:40:24.896Z,101367.16
2022-10-13T06:42:31.442Z,101436.03
2022-10-13T06:44:45.453Z,101427.75
2022-10-13T06:46:48.002Z,101459.00
2022-10-13T06:48:51.699Z,101434.19
2022-10-13T06:50:56.373Z,101432.75
2022-10-13T06:52:59.275Z,101432.75
2022-10-13T06:55:06.825Z,101413.03
2022-10-13T06:57:10.729Z,101427.34
2022-10-13T06:59:13.348Z,101428.56
2022-10-13T07:01:16.010Z,101312.00
2022-10-13T07:03:18.909Z,101438.06
2022-10-13T07:05:47.469Z,101425.94
2022-10-13T07:08:03.621Z,101444.28
2022-10-13T07:10:10.931Z,101431.75
2022-10-13T07:12:14.374Z,101349.34
2022-10-13T07:14:16.924Z,101406.50
2022-10-13T07:16:19.462Z,101415.75
2022-10-13T07:18:22.799Z,101297.53
2022-10-13T07:20:25.884Z,101392.66
2022-10-13T07:22:29.009Z,101400.59
2022-10-13T07:24:32.764Z,101398.69
2022-10-13T07:26:36.664Z,101305.88
2022-10-13T07:28:40.206Z,101413.78
2022-10-13T07:30:43.165Z,101380.91
2022-10-13T07:32:45.776Z,101319.81
2022-10-13T07:34:53.928Z,101381.03
2022-10-13T07:36:56.892Z,101398.56
2022-10-13T07:39:01.222Z,101391.66
2022-10-13T07:41:06.759Z,101406.50
2022-10-13T07:43:09.354Z,101401.88
2022-10-13T07:45:12.005Z,101402.25
2022-10-13T07:47:14.774Z,101372.44
2022-10-13T07:49:18.198Z,101414.25
2022-10-13T07:51:23.609Z,101356.69
2022-10-13T07:53:26.198Z,101415.84
2022-10-13T07:55:28.928Z,101409.13
2022-10-13T07:58:13.082Z,101407.63
2022-10-13T08:00:15.886Z,101410.81
2022-10-13T08:02:18.590Z,101383.50
2022-10-13T08:04:21.934Z,101383.38
2022-10-13T08:06:25.076Z,101381.22
2022-10-13T08:08:30.346Z,101396.69
2022-10-13T08:10:33.026Z,101398.53
2022-10-13T08:12:36.581Z,101396.66
2022-10-13T08:14:42.404Z,101366.03
2022-10-13T08:16:48.733Z,101352.34
2022-10-13T08:18:54.304Z,101337.56
2022-10-13T08:21:33.129Z,101378.88
2022-10-13T08:23:23.984Z,101381.03
2022-10-13T08:25:27.884Z,101357.59
2022-10-13T08:27:49.709Z,101370.66
2022-10-13T08:29:54.880Z,101352.56
2022-10-13T08:31:57.442Z,101367.31
2022-10-13T08:34:00.300Z,101368.78
2022-10-13T08:36:02.806Z,101369.94
2022-10-13T08:38:05.566Z,101290.81
2022-10-13T08:40:13.483Z,101325.63
2022-10-13T08:42:21.537Z,101378.88
2022-10-13T08:45:10.800Z,101360.34
2022-10-13T08:47:27.248Z,101381.59
2022-10-13T08:49:31.007Z,101373.31
2022-10-13T08:51:34.389Z,101205.78
2022-10-13T08:53:42.893Z,101371.53
2022-10-13T08:55:52.576Z,101319.63
2022-10-13T08:57:55.106Z,101369.13
2022-10-13T09:00:01.631Z,101354.09
2022-10-13T09:02:14.628Z,101367.19
2022-10-13T09:04:41.511Z,101358.72
2022-10-13T09:06:54.377Z,101356.34
2022-10-13T09:09:04.643Z,101362.75
2022-10-13T09:11:12.090Z,101350.03
2022-10-13T09:13:14.686Z,101329.59
2022-10-13T09:15:18.726Z,101342.97
2022-10-13T09:17:26.507Z,101336.94
2022-10-13T09:19:40.889Z,101353.75
2022-10-13T09:21:43.908Z,101306.22
2022-10-13T09:23:47.609Z,101330.78
2022-10-13T09:25:52.478Z,101319.63
2022-10-13T09:28:01.279Z,101340.75
2022-10-13T09:30:48.490Z,101323.72
2022-10-13T09:32:51.226Z,101259.09
2022-10-13T09:34:55.561Z,101319.81
2022-10-13T09:37:06.737Z,101344.31
2022-10-13T09:39:15.499Z,101335.22
2022-10-13T09:41:22.026Z,101344.81
2022-10-13T09:43:59.418Z,101305.09
2022-10-13T09:46:23.517Z,101344.50
2022-10-13T09:48:31.619Z,101350.56
2022-10-13T09:50:36.050Z,101337.72
2022-10-13T09:52:38.831Z,101340.59
2022-10-13T09:54:52.589Z,101329.97
2022-10-13T09:57:35.134Z,101349.66
2022-10-13T09:59:46.411Z,101346.28
2022-10-13T10:01:51.555Z,101315.06
2022-10-13T10:03:55.505Z,101342.53
2022-10-13T10:06:11.688Z,101332.50
2022-10-13T10:08:58.064Z,101357.38
2022-10-13T10:11:12.135Z,101347.56
2022-10-13T10:13:15.395Z,101334.84
2022-10-13T10:15:36.627Z,101349.03
2022-10-13T10:17:52.922Z,101322.44
2022-10-13T10:20:29.161Z,101328.06
2022-10-13T10:22:53.301Z,101340.03
2022-10-13T10:25:04.883Z,101338.69
2022-10-13T10:27:31.559Z,101331.53
2022-10-13T10:30:28.647Z,101322.22
2022-10-13T10:32:48.513Z,101289.72
2022-10-13T10:35:06.221Z,101295.06
2022-10-13T10:37:22.848Z,101313.16
2022-10-13T10:39:40.783Z,101257.22
2022-10-13T10:42:21.748Z,101312.38
2022-10-13T10:44:32.332Z,101274.03
2022-10-13T10:46:46.895Z,101272.22
2022-10-13T10:48:55.315Z,101292.97
2022-10-13T10:50:57.969Z,101263.44
2022-10-13T10:53:06.196Z,101287.09
2022-10-13T10:55:30.056Z,101286.81
2022-10-13T10:58:06.790Z,101290.28
2022-10-13T11:00:17.991Z,101281.75
2022-10-13T11:03:00.632Z,101266.91
2022-10-13T11:05:06.291Z,101229.13
2022-10-13T11:07:24.136Z,101287.63
2022-10-13T11:09:42.666Z,101284.19
2022-10-13T11:11:45.209Z,101276.97
2022-10-13T11:14:07.680Z,101289.25
2022-10-13T11:16:39.308Z,101290.28
2022-10-13T11:19:07.983Z,101288.16
2022-10-13T11:21:10.618Z,101276.19
2022-10-13T11:23:29.802Z,101254.09
2022-10-13T11:25:41.698Z,101284.44
2022-10-13T11:27:44.906Z,101240.28
2022-10-13T11:29:47.457Z,101269.78
2022-10-13T11:31:55.101Z,101225.41
2022-10-13T11:34:03.694Z,101221.41
2022-10-13T11:36:54.228Z,101259.94
2022-10-13T11:39:16.449Z,101246.91
2022-10-13T11:41:27.948Z,101200.88
2022-10-13T11:44:14.838Z,101245.06
2022-10-13T11:46:26.464Z,101248.75
2022-10-13T11:49:10.818Z,101254.56
2022-10-13T11:51:46.714Z,101187.03
2022-10-13T11:54:29.794Z,101236.75
2022-10-13T11:56:51.740Z,101231.16
2022-10-13T11:58:54.278Z,101201.91
2022-10-13T12:01:13.135Z,101173.69
2022-10-13T12:03:27.700Z,101228.44
2022-10-13T12:05:31.891Z,101151.06
2022-10-13T12:07:41.512Z,101180.22
2022-10-13T12:09:53.486Z,101188.47
2022-10-13T12:12:19.680Z,101205.72
2022-10-13T12:19:23.736Z,101203.78
2022-10-13T12:21:27.043Z,101217.59
2022-10-13T12:23:32.402Z,101194.97
2022-10-13T12:25:36.142Z,101226.09
2022-10-13T12:27:52.455Z,101222.09
2022-10-13T12:29:55.409Z,101210.63
2022-10-13T12:31:58.754Z,101197.34
2022-10-13T12:34:02.894Z,101119.03
2022-10-13T12:36:20.268Z,101212.22
2022-10-13T12:38:26.004Z,101218.63
2022-10-13T12:40:29.958Z,101205.81
2022-10-13T12:42:38.722Z,101224.72
2022-10-13T12:44:41.627Z,101180.25
2022-10-13T12:46:53.318Z,101190.88
2022-10-13T12:49:13.035Z,101186.03
2022-10-13T12:51:27.497Z,101188.69
2022-10-13T12:53:31.316Z,101194.03
2022-10-13T12:55:36.334Z,101208.63
2022-10-13T12:57:40.305Z,101202.00
2022-10-13T12:59:43.502Z,101111.69
2022-10-13T13:01:53.060Z,101148.84
2022-10-13T13:04:02.882Z,101204.91
2022-10-13T13:06:14.288Z,101209.38
2022-10-13T13:08:26.144Z,101213.16
2022-10-13T13:10:29.152Z,101211.53
2022-10-13T13:12:31.771Z,101201.69
2022-10-13T13:14:46.049Z,101121.25
2022-10-13T13:17:09.008Z,101203.66
2022-10-13T13:19:22.844Z,101207.13
2022-10-13T13:21:26.525Z,101179.75
2022-10-13T13:23:34.176Z,101194.38
2022-10-13T13:25:39.104Z,101200.50
2022-10-13T13:27:42.784Z,101172.56
2022-10-13T13:29:45.749Z,101165.47
2022-10-13T13:31:48.385Z,101160.16
2022-10-13T13:33:51.171Z,101096.94
2022-10-13T13:35:54.792Z,101180.31
2022-10-13T13:37:57.394Z,101160.63
2022-10-13T13:40:00.572Z,101134.84
2022-10-13T13:42:03.233Z,101158.13
2022-10-13T13:44:05.957Z,101157.75
2022-10-13T13:46:18.186Z,101188.44
2022-10-13T13:48:20.798Z,101124.16
2022-10-13T13:50:33.979Z,101170.44
2022-10-13T13:52:36.602Z,101166.72
2022-10-13T13:54:40.241Z,101135.69
2022-10-13T13:56:42.751Z,101155.38
2022-10-13T13:58:46.567Z,101165.22
2022-10-13T14:00:49.209Z,101157.59
2022-10-13T14:02:51.846Z,101133.25
2022-10-13T14:04:54.449Z,101156.44
2022-10-13T14:06:57.852Z,101114.84
2022-10-13T14:09:00.731Z,101148.09
2022-10-13T14:11:06.773Z,101124.56
2022-10-13T14:13:09.357Z,101106.59
2022-10-13T14:15:11.998Z,101137.19
2022-10-13T14:17:14.537Z,101117.03
2022-10-13T14:19:17.237Z,101131.41
2022-10-13T14:21:19.819Z,101063.97
2022-10-13T14:23:22.437Z,101135.72
2022-10-13T14:25:25.194Z,101050.69
2022-10-13T14:27:28.155Z,101146.34
2022-10-13T14:29:31.547Z,101114.75
2022-10-13T14:31:34.215Z,101136.56
2022-10-13T14:33:37.795Z,101124.06
2022-10-13T14:35:40.348Z,101145.03
2022-10-13T14:37:45.598Z,101065.03
2022-10-13T14:39:48.194Z,101114.75
2022-10-13T14:41:50.765Z,101125.66
2022-10-13T14:43:57.356Z,101124.63
2022-10-13T14:46:04.692Z,101140.28
2022-10-13T14:48:07.265Z,101088.19
2022-10-13T14:50:10.574Z,101116.63
2022-10-13T14:52:13.177Z,101108.63
2022-10-13T14:54:15.734Z,101094.81
2022-10-13T14:56:21.330Z,101145.06
2022-10-13T14:58:29.944Z,101113.69
2022-10-13T15:00:32.485Z,101106.25
2022-10-13T15:02:37.663Z,101140.81
2022-10-13T15:04:40.192Z,101110.47
2022-10-13T15:06:42.795Z,101076.97
2022-10-13T15:08:46.140Z,101143.44
2022-10-13T15:10:48.783Z,101111.50
2022-10-13T15:12:51.398Z,101139.41
2022-10-13T15:14:54.137Z,101135.09
2022-10-13T15:16:56.700Z,101095.44
2022-10-13T15:19:01.764Z,101103.91
2022-10-13T15:21:04.620Z,101114.53
2022-10-13T15:23:07.378Z,101121.97
2022-10-13T15:25:11.735Z,101139.00
2022-10-13T15:27:14.306Z,101114.75
2022-10-13T15:29:18.953Z,101136.56
2022-10-13T15:31:22.694Z,101116.38
2022-10-13T15:33:25.506Z,101145.34
2022-10-13T15:35:32.498Z,101120.38
2022-10-13T15:37:35.026Z,101134.22
2022-10-13T15:39:37.957Z,101140.59
2022-10-13T15:41:41.863Z,101100.16
2022-10-13T15:43:48.214Z,101137.38
2022-10-13T15:46:02.594Z,101076.22
2022-10-13T15:48:10.080Z,101140.03
2022-10-13T15:50:12.646Z,101141.59
2022-10-13T15:52:15.455Z,101137.63
2022-10-13T15:54:18.610Z,101130.91
2022-10-13T15:56:21.246Z,101130.91
2022-10-13T15:58:25.453Z,101121.31
2022-10-13T16:00:28.007Z,101025.25
2022-10-13T16:02:30.678Z,101011.34
2022-10-13T16:04:37.495Z,101052.00
2022-10-13T16:06:41.318Z,101143.53
2022-10-13T16:08:44.363Z,101142.94
2022-10-13T16:10:47.094Z,101093.34
2022-10-13T16:12:50.892Z,101140.19
2022-10-13T16:14:53.401Z,101113.69
2022-10-13T16:16:58.151Z,101120.31
2022-10-13T16:19:00.787Z,101129.63
2022-10-13T16:21:29.228Z,101101.09
2022-10-13T16:23:31.950Z,101123.94
2022-10-13T16:25:39.283Z,101081.00
2022-10-13T16:27:44.512Z,101033.03
2022-10-13T16:29:47.310Z,101020.94
2022-10-13T16:31:49.870Z,101117.34
2022-10-13T16:33:52.575Z,101114.91
2022-10-13T16:36:06.402Z,101013.97
2022-10-13T16:38:09.016Z,101131.19
2022-10-13T16:40:12.393Z,101133.78
2022-10-13T16:42:14.954Z,101115.09
2022-10-13T16:44:17.812Z,101108.41
2022-10-13T16:46:20.881Z,101140.06
2022-10-13T16:48:23.906Z,101122.69
2022-10-13T16:50:26.455Z,101037.16
2022-10-13T16:52:29.767Z,101087.75
2022-10-13T16:54:32.937Z,101062.63
2022-10-13T16:56:36.384Z,101056.16
2022-10-13T16:58:43.509Z,101132.09
2022-10-13T17:00:46.208Z,101129.09
2022-10-13T17:02:48.959Z,101003.06
2022-10-13T17:04:51.611Z,101126.91
2022-10-13T17:06:54.223Z,101061.78
2022-10-13T17:09:03.214Z,101129.44
2022-10-13T17:11:06.855Z,101137.63
2022-10-13T17:13:09.482Z,101131.41
2022-10-13T17:15:12.146Z,101110.00
2022-10-13T17:17:15.462Z,101152.66
2022-10-13T17:19:18.102Z,101136.31
2022-10-13T17:21:24.067Z,101123.78
2022-10-13T17:23:27.611Z,101123.72
2022-10-13T17:25:30.178Z,101129.75
2022-10-13T17:27:37.333Z,101116.13
2022-10-13T17:29:39.880Z,101136.31
2022-10-13T17:31:42.456Z,101023.69
2022-10-13T17:33:46.411Z,101091.38
2022-10-13T17:35:48.991Z,101142.78
2022-10-13T17:37:51.566Z,101147.75
2022-10-13T17:39:55.012Z,101138.63
2022-10-13T17:41:57.596Z,101137.91
2022-10-13T17:44:00.309Z,101130.47
2022-10-13T17:46:35.642Z,101133.69
2022-10-13T17:48:39.371Z,101124.22
2022-10-13T17:50:42.026Z,101143.13
2022-10-13T17:52:44.971Z,101135.16
2022-10-13T17:54:47.555Z,101129.31
2022-10-13T17:56:51.194Z,101131.47
2022-10-13T17:58:54.331Z,101120.16
2022-10-13T18:01:12.451Z,101114.44
2022-10-13T18:03:15.740Z,101107.41
2022-10-13T18:05:18.591Z,101085.03
2022-10-13T18:07:21.469Z,101112.94
2022-10-13T18:09:24.579Z,101130.16
2022-10-13T18:11:27.129Z,101121.03
2022-10-13T18:13:34.513Z,101125.03
2022-10-13T18:15:38.393Z,101108.69
2022-10-13T18:17:40.955Z,101123.09
2022-10-13T18:19:43.879Z,101106.75
2022-10-13T18:21:47.594Z,101123.59
2022-10-13T18:23:50.270Z,101111.88
2022-10-13T18:25:52.835Z,101100.66
2022-10-13T18:27:56.834Z,101098.28
2022-10-13T18:30:00.340Z,101094.75
2022-10-13T18:32:04.959Z,101111.56
2022-10-13T18:34:11.966Z,101124.63
2022-10-13T18:36:25.500Z,101061.63
2022-10-13T18:38:28.392Z,101093.16
2022-10-13T18:40:31.139Z,101072.34
2022-10-13T18:42:33.715Z,101121.41
2022-10-13T18:44:36.315Z,101093.16
2022-10-13T18:46:39.783Z,101052.81
2022-10-13T18:48:43.291Z,101115.56
2022-10-13T18:50:45.874Z,101073.72
2022-10-13T18:52:48.611Z,101012.47
2022-10-13T18:54:51.195Z,101090.09
2022-10-13T18:56:54.232Z,101104.25
2022-10-13T18:58:59.963Z,101086.13
2022-10-13T19:01:05.824Z,101116.50
2022-10-13T19:03:08.461Z,101073.06
2022-10-13T19:05:11.027Z,101105.06
2022-10-13T19:07:13.558Z,101086.75
2022-10-13T19:09:17.523Z,101067.88
2022-10-13T19:11:21.338Z,101058.50
2022-10-13T19:13:26.142Z,101075.56
2022-10-13T19:15:28.718Z,101087.63
2022-10-13T19:17:33.333Z,101105.41
2022-10-13T19:19:35.947Z,101092.03
2022-10-13T19:21:39.565Z,101094.19
2022-10-13T19:23:44.695Z,101089.72
2022-10-13T19:25:56.988Z,101055.47
2022-10-13T19:28:02.063Z,101085.31
2022-10-13T19:30:05.198Z,101081.53
2022-10-13T19:32:08.053Z,101046.56
2022-10-13T19:34:12.735Z,101087.22
2022-10-13T19:36:32.123Z,101110.28
2022-10-13T19:38:38.066Z,101096.66
2022-10-13T19:40:47.591Z,101085.91
2022-10-13T19:42:50.305Z,101083.41
2022-10-13T19:44:52.981Z,101073.47
2022-10-13T19:46:55.543Z,100944.72
2022-10-13T19:48:58.178Z,101035.66
2022-10-13T19:51:02.488Z,101075.66
2022-10-13T19:53:05.051Z,101067.91
2022-10-13T19:55:08.579Z,101082.88
2022-10-13T19:57:11.476Z,101086.88
2022-10-13T19:59:14.479Z,101072.94
2022-10-13T20:01:19.179Z,101084.63
2022-10-13T20:03:21.980Z,101102.00
2022-10-13T20:05:26.671Z,101102.22
2022-10-13T20:07:29.229Z,101090.38
2022-10-13T20:09:31.810Z,101107.75
2022-10-13T20:11:34.348Z,101006.97
2022-10-13T20:13:37.045Z,101007.44
2022-10-13T20:15:43.434Z,101091.78
2022-10-13T20:17:46.081Z,101079.44
2022-10-13T20:19:48.600Z,100984.97
2022-10-13T20:21:55.101Z,101093.53
2022-10-13T20:23:58.397Z,101077.59
2022-10-13T20:26:11.306Z,101085.19
2022-10-13T20:28:13.893Z,101066.59
2022-10-13T20:30:16.640Z,101042.25
2022-10-13T20:33:10.323Z,101101.75
2022-10-13T20:35:12.899Z,101053.09
2022-10-13T20:37:15.544Z,101096.84
2022-10-13T20:39:18.089Z,101018.81
2022-10-13T20:41:27.693Z,101104.06
2022-10-13T20:43:30.846Z,101075.19
2022-10-13T20:45:33.522Z,100983.72
2022-10-13T20:47:36.426Z,101090.47
2022-10-13T20:49:38.938Z,100956.41
2022-10-13T20:51:43.185Z,101084.94
2022-10-13T20:53:46.856Z,101108.31
2022-10-13T20:55:59.433Z,101107.41
2022-10-13T20:58:02.021Z,101090.00
2022-10-13T21:00:06.239Z,101110.50
2022-10-13T21:02:13.268Z,101095.97
2022-10-13T21:04:16.505Z,101098.84
2022-10-13T21:06:19.024Z,101098.72
2022-10-13T21:08:22.673Z,101116.00
2022-10-13T21:10:25.329Z,101085.34
2022-10-13T21:12:27.884Z,101079.50
2022-10-13T21:14:30.516Z,101087.75
2022-10-13T21:16:33.506Z,101089.44
2022-10-13T21:19:04.258Z,101118.75
2022-10-13T21:21:09.115Z,101060.06
2022-10-13T21:23:12.325Z,101016.00
2022-10-13T21:25:15.010Z,101107.53
2022-10-13T21:27:18.117Z,101091.84
2022-10-13T21:29:20.847Z,101102.84
2022-10-13T21:31:25.193Z,101107.31
2022-10-13T21:33:27.887Z,101088.88
2022-10-13T21:35:36.114Z,101086.94
2022-10-13T21:37:39.096Z,101102.16
2022-10-13T21:39:41.611Z,101084.09
2022-10-13T21:41:48.158Z,101111.44
2022-10-13T21:43:52.097Z,101107.44
2022-10-13T21:45:56.452Z,101063.72
2022-10-13T21:47:59.217Z,101029.50
2022-10-13T21:50:02.799Z,101082.84
2022-10-13T21:52:05.432Z,101048.63
2022-10-13T21:54:13.161Z,101114.19
2022-10-13T21:56:16.139Z,101106.75
2022-10-13T21:58:18.729Z,101086.88
2022-10-13T22:00:21.377Z,101114.00
2022-10-13T22:02:26.016Z,101104.16
2022-10-13T22:04:28.632Z,101108.41
2022-10-13T22:06:32.731Z,101118.47
2022-10-13T22:08:40.513Z,101118.59
2022-10-13T22:11:12.866Z,101082.66
2022-10-13T22:13:15.436Z,101104.84
2022-10-13T22:15:18.017Z,101117.44
2022-10-13T22:17:22.039Z,101089.97
2022-10-13T22:19:25.215Z,101086.41
2022-10-13T22:21:37.511Z,101003.47
2022-10-13T22:23:41.212Z,101108.41
2022-10-13T22:25:45.818Z,101076.34
2022-10-13T22:27:48.600Z,101057.09
2022-10-13T22:29:51.315Z,101048.66
2022-10-13T22:31:58.201Z,101066.88
2022-10-13T22:34:02.788Z,101102.34
2022-10-13T22:36:20.629Z,101098.34
2022-10-13T22:38:23.178Z,101095.00
2022-10-13T22:40:25.729Z,101062.38
2022-10-13T22:42:28.534Z,101095.00
2022-10-13T22:44:31.095Z,101038.78
2022-10-13T22:46:38.728Z,101042.59
2022-10-13T22:48:41.781Z,100984.88
2022-10-13T22:50:49.358Z,101082.06
2022-10-13T22:52:51.978Z,101082.66
2022-10-13T22:54:54.563Z,101066.50
2022-10-13T22:56:57.584Z,101088.94
2022-10-13T22:59:06.872Z,101089.41
2022-10-13T23:01:15.275Z,101085.16
2022-10-13T23:03:18.386Z,101067.78
2022-10-13T23:05:21.660Z,101012.78
2022-10-13T23:07:24.451Z,101093.84
2022-10-13T23:09:27.215Z,101093.28
2022-10-13T23:11:29.902Z,101014.50
2022-10-13T23:13:32.715Z,101015.06
2022-10-13T23:15:38.559Z,101067.28
2022-10-13T23:17:41.114Z,101082.63
2022-10-13T23:19:44.287Z,101066.81
2022-10-13T23:21:46.818Z,101041.97
2022-10-13T23:23:57.858Z,101069.44
2022-10-13T23:26:16.124Z,101053.09
2022-10-13T23:28:18.737Z,101068.31
2022-10-13T23:30:24.307Z,101077.47
2022-10-13T23:32:26.891Z,101059.34
2022-10-13T23:34:29.470Z,101064.97
2022-10-13T23:36:33.302Z,101086.75
2022-10-13T23:38:35.922Z,101047.44
2022-10-13T23:40:38.495Z,101069.84
2022-10-13T23:42:41.025Z,101067.31
2022-10-13T23:44:43.577Z,101054.88
2022-10-13T23:46:46.137Z,101055.31
2022-10-13T23:48:50.685Z,100972.06
2022-10-13T23:50:53.462Z,100998.97
2022-10-13T23:52:56.721Z,101055.84
2022-10-13T23:54:59.238Z,101041.66
2022-10-13T23:57:04.244Z,100954.22
2022-10-13T23:59:06.878Z,101012.81
